Time;durP1;ratioP1;P1;durP2;ratioP2;P2;SDS_P1;SDS_P2;PMS_P1;PMS_P2;Temp;Humidity;BMP_temperature;BMP_pressure;BME280_temperature;BME280_humidity;BME280_pressure;Samples;Min_cycle;Max_cycle;Signal;HPM_P1;HPM_P2
2024/03/06 00:00:33;;;;;;;1.67;1.10;;;4.90;99.90;;;;;;2057643;28;20241;-68
2024/03/06 00:01:34;;;;;;;1.75;1.30;;;4.90;99.90;;;;;;2056344;28;20289;-73
2024/03/06 00:02:35;;;;;;;2.33;1.35;;;4.80;99.90;;;;;;2066491;28;20304;-73
2024/03/06 00:03:36;;;;;;;4.45;1.45;;;4.90;99.90;;;;;;2067995;28;20235;-73
2024/03/06 00:04:37;;;;;;;1.50;1.40;;;4.90;99.90;;;;;;2061092;28;20222;-72
2024/03/06 00:05:38;;;;;;;1.98;1.65;;;4.80;99.90;;;;;;2072851;28;20292;-72
2024/03/06 00:06:39;;;;;;;1.20;1.00;;;4.80;99.90;;;;;;2066181;28;20891;-70
2024/03/06 00:07:39;;;;;;;2.73;1.23;;;4.80;99.90;;;;;;2071833;28;20316;-70
2024/03/06 00:08:40;;;;;;;1.90;1.53;;;4.80;99.90;;;;;;2072610;28;20378;-70
2024/03/06 00:09:41;;;;;;;4.53;1.40;;;4.80;99.90;;;;;;2070206;28;20316;-70
2024/03/06 00:10:41;;;;;;;1.77;1.20;;;4.80;99.90;;;;;;2072607;28;20233;-69
2024/03/06 00:11:42;;;;;;;2.73;1.80;;;4.80;99.90;;;;;;2063315;28;20680;-70
2024/03/06 00:12:43;;;;;;;1.57;1.40;;;4.80;99.90;;;;;;2071509;28;20225;-70
2024/03/06 00:13:44;;;;;;;2.50;1.57;;;4.80;99.90;;;;;;2063742;28;20245;-73
2024/03/06 00:14:45;;;;;;;2.55;1.38;;;4.70;99.90;;;;;;2055304;28;20189;-72
2024/03/06 00:15:46;;;;;;;2.80;1.90;;;4.70;99.90;;;;;;2063817;28;20186;-72
2024/03/06 00:16:47;;;;;;;2.33;1.60;;;4.80;99.90;;;;;;2072865;28;20658;-73
2024/03/06 00:17:49;;;;;;;4.10;2.28;;;4.70;99.90;;;;;;2063351;28;20194;-72
2024/03/06 00:18:49;;;;;;;2.40;1.58;;;4.70;99.90;;;;;;2065482;28;20186;-72
2024/03/06 00:19:51;;;;;;;2.80;1.37;;;4.70;99.90;;;;;;2071865;28;20209;-73
2024/03/06 00:20:52;;;;;;;1.52;1.27;;;4.70;99.90;;;;;;2069897;28;20191;-73
2024/03/06 00:21:53;;;;;;;2.33;1.38;;;4.70;99.90;;;;;;2071155;28;20594;-72
2024/03/06 00:22:54;;;;;;;2.45;1.50;;;4.70;99.90;;;;;;2062002;28;20190;-72
2024/03/06 00:23:55;;;;;;;3.43;1.60;;;4.60;99.90;;;;;;2061149;28;20194;-73
2024/03/06 00:24:56;;;;;;;2.38;1.50;;;4.60;99.90;;;;;;2070193;28;20213;-72
2024/03/06 00:25:57;;;;;;;4.40;1.70;;;4.60;99.90;;;;;;2071157;28;20244;-74
2024/03/06 00:26:57;;;;;;;2.13;1.37;;;4.60;99.90;;;;;;2064170;28;20210;-74
2024/03/06 00:27:58;;;;;;;2.77;1.40;;;4.50;99.90;;;;;;2065086;28;20300;-73
2024/03/06 00:28:59;;;;;;;2.30;1.70;;;4.50;99.90;;;;;;2074837;28;20574;-73
2024/03/06 00:29:59;;;;;;;2.20;1.43;;;4.40;99.90;;;;;;2073166;28;20232;-73
2024/03/06 00:31:00;;;;;;;4.00;2.20;;;4.40;99.90;;;;;;2073386;28;20319;-73
2024/03/06 00:32:01;;;;;;;5.00;1.73;;;4.30;99.90;;;;;;2073572;28;20216;-73
2024/03/06 00:33:01;;;;;;;2.90;1.63;;;4.30;99.90;;;;;;2068698;28;20218;-73
2024/03/06 00:34:02;;;;;;;2.63;1.60;;;4.30;99.90;;;;;;2071209;28;20265;-73
2024/03/06 00:35:04;;;;;;;4.33;1.57;;;4.20;99.90;;;;;;2070827;28;20388;-73
2024/03/06 00:36:05;;;;;;;2.28;1.40;;;4.20;99.90;;;;;;2064290;28;20233;-73
2024/03/06 00:37:06;;;;;;;3.55;2.30;;;4.20;99.90;;;;;;2070763;28;20237;-73
2024/03/06 00:38:07;;;;;;;3.00;1.60;;;4.30;99.90;;;;;;2068005;28;20726;-73
2024/03/06 00:39:07;;;;;;;2.95;1.98;;;4.30;99.90;;;;;;2063910;28;20758;-71
2024/03/06 00:40:09;;;;;;;3.27;1.77;;;4.30;99.90;;;;;;2059531;28;20234;-72
2024/03/06 00:41:10;;;;;;;3.78;1.92;;;4.30;99.90;;;;;;2058506;28;20321;-72
2024/03/06 00:42:13;;;;;;;1.80;1.70;;;4.30;99.90;;;;;;2071628;28;20233;-72
2024/03/06 00:43:14;;;;;;;3.45;1.55;;;4.30;99.90;;;;;;2065218;28;20888;-73
2024/03/06 00:44:16;;;;;;;2.70;2.20;;;4.30;99.90;;;;;;2059660;28;20233;-73
2024/03/06 00:45:16;;;;;;;2.85;1.83;;;4.40;99.90;;;;;;2073385;28;20239;-73
2024/03/06 00:46:17;;;;;;;4.23;2.07;;;4.40;99.90;;;;;;2070532;28;20224;-73
2024/03/06 00:47:18;;;;;;;2.37;1.80;;;4.50;99.90;;;;;;2070203;28;20225;-74
2024/03/06 00:48:20;;;;;;;2.63;2.10;;;4.50;99.90;;;;;;2065873;28;20221;-72
2024/03/06 00:49:20;;;;;;;2.45;2.10;;;4.60;99.90;;;;;;2065057;28;20249;-73
2024/03/06 00:50:22;;;;;;;2.87;2.13;;;4.60;99.90;;;;;;2073008;28;20228;-73
2024/03/06 00:51:23;;;;;;;3.53;2.03;;;4.50;99.90;;;;;;2057678;28;20226;-72
2024/03/06 00:52:23;;;;;;;5.47;1.95;;;4.60;99.90;;;;;;2049785;28;20237;-73
2024/03/06 00:53:24;;;;;;;2.83;2.13;;;4.50;99.90;;;;;;2049402;28;20317;-73
2024/03/06 00:54:25;;;;;;;2.87;1.83;;;4.60;99.90;;;;;;2062408;28;20293;-73
2024/03/06 00:55:25;;;;;;;2.47;1.83;;;4.60;99.90;;;;;;2081432;28;20973;-73
2024/03/06 00:56:26;;;;;;;2.17;1.93;;;4.60;99.90;;;;;;2073040;28;20595;-73
2024/03/06 00:57:27;;;;;;;2.23;1.93;;;4.60;99.90;;;;;;2065529;28;20244;-73
2024/03/06 00:58:28;;;;;;;4.13;1.92;;;4.50;99.90;;;;;;2065302;28;20225;-73
2024/03/06 00:59:28;;;;;;;4.03;2.53;;;4.50;99.90;;;;;;2062886;28;20225;-74
2024/03/06 01:00:30;;;;;;;2.83;2.13;;;4.50;99.90;;;;;;2054218;28;20230;-73
2024/03/06 01:01:30;;;;;;;2.38;1.90;;;4.40;99.90;;;;;;2047123;28;20253;-73
2024/03/06 01:02:31;;;;;;;2.93;1.90;;;4.40;99.90;;;;;;2054981;28;20234;-73
2024/03/06 01:03:32;;;;;;;3.20;2.30;;;4.30;99.90;;;;;;2071835;28;20236;-73
2024/03/06 01:04:32;;;;;;;3.20;2.13;;;4.30;99.90;;;;;;2063378;28;20226;-72
2024/03/06 01:05:33;;;;;;;3.83;2.50;;;4.30;99.90;;;;;;2055467;28;20230;-73
2024/03/06 01:06:34;;;;;;;2.70;2.40;;;4.30;99.90;;;;;;2047907;28;20239;-72
2024/03/06 01:07:37;;;;;;;2.83;2.00;;;4.30;99.90;;;;;;2056365;28;20261;-71
2024/03/06 01:08:38;;;;;;;5.05;2.90;;;4.40;99.90;;;;;;2064941;28;20652;-72
2024/03/06 01:09:38;;;;;;;2.63;2.30;;;4.30;99.90;;;;;;2065458;28;20296;-72
2024/03/06 01:10:39;;;;;;;3.87;2.17;;;4.30;99.90;;;;;;2073831;28;20749;-72
2024/03/06 01:11:40;;;;;;;3.83;2.27;;;4.40;99.90;;;;;;2070539;28;20539;-72
2024/03/06 01:12:40;;;;;;;3.70;2.50;;;4.40;99.90;;;;;;2070995;28;20229;-72
2024/03/06 01:13:41;;;;;;;3.80;2.83;;;4.40;99.90;;;;;;2070159;28;20243;-72
2024/03/06 01:14:42;;;;;;;4.83;2.57;;;4.50;99.90;;;;;;2070831;28;20234;-72
2024/03/06 01:15:43;;;;;;;3.30;2.65;;;4.50;99.90;;;;;;2070714;28;20225;-72
2024/03/06 01:16:43;;;;;;;2.77;2.20;;;4.50;99.90;;;;;;2062474;28;20432;-72
2024/03/06 01:17:44;;;;;;;2.93;2.37;;;4.50;99.90;;;;;;2065447;28;20300;-72
2024/03/06 01:18:45;;;;;;;3.10;2.60;;;4.60;99.90;;;;;;2073205;28;20242;-72
2024/03/06 01:19:45;;;;;;;3.63;2.20;;;4.60;99.90;;;;;;2065546;28;20283;-72
2024/03/06 01:20:46;;;;;;;2.40;2.17;;;4.60;99.90;;;;;;2057661;28;20653;-72
2024/03/06 01:21:48;;;;;;;3.50;2.10;;;4.70;99.90;;;;;;2065949;28;20581;-72
2024/03/06 01:22:49;;;;;;;3.20;2.28;;;4.70;99.90;;;;;;2073607;28;20183;-74
2024/03/06 01:23:49;;;;;;;2.53;2.20;;;4.80;99.90;;;;;;2067309;28;20240;-74
2024/03/06 01:24:50;;;;;;;3.30;1.90;;;4.80;99.90;;;;;;2075919;28;20190;-74
2024/03/06 01:25:51;;;;;;;4.77;1.80;;;4.90;99.90;;;;;;2072326;28;20213;-73
2024/03/06 01:26:52;;;;;;;3.30;2.00;;;4.90;99.90;;;;;;2060984;28;20700;-73
2024/03/06 01:27:52;;;;;;;3.17;1.63;;;5.00;99.90;;;;;;2068598;28;20626;-73
2024/03/06 01:28:53;;;;;;;3.47;2.27;;;5.10;99.90;;;;;;2069176;28;20205;-73
2024/03/06 01:29:54;;;;;;;2.10;1.90;;;5.10;99.90;;;;;;2060405;28;20210;-73
2024/03/06 01:30:54;;;;;;;3.50;2.00;;;5.10;99.90;;;;;;2066768;28;20789;-73
2024/03/06 01:31:55;;;;;;;2.20;1.83;;;5.00;99.90;;;;;;2069929;28;20645;-71
2024/03/06 01:32:56;;;;;;;3.20;2.03;;;5.00;99.90;;;;;;2075211;28;20181;-71
2024/03/06 01:33:56;;;;;;;4.47;2.10;;;5.00;99.90;;;;;;2074077;28;20264;-71
2024/03/06 01:34:57;;;;;;;4.63;2.43;;;5.00;99.90;;;;;;2070963;28;20185;-71
2024/03/06 01:35:58;;;;;;;3.17;2.73;;;5.00;99.90;;;;;;2074321;28;20186;-72
2024/03/06 01:36:59;;;;;;;4.10;1.77;;;5.10;99.90;;;;;;2071062;28;20182;-71
2024/03/06 01:38:01;;;;;;;3.33;2.03;;;5.10;99.90;;;;;;2065276;28;20213;-72
2024/03/06 01:39:02;;;;;;;6.15;2.53;;;5.10;99.90;;;;;;2075196;28;20742;-72
2024/03/06 01:40:07;;;;;;;2.63;1.90;;;5.10;99.90;;;;;;2071896;28;20229;-71
2024/03/06 01:41:07;;;;;;;4.70;2.15;;;5.10;99.90;;;;;;2073205;28;20308;-71
2024/03/06 01:42:09;;;;;;;2.70;2.07;;;5.10;99.90;;;;;;2075727;28;20232;-72
2024/03/06 01:43:22;;;;;;;3.03;1.85;;;5.10;99.90;;;;;;2073060;28;20276;-72
2024/03/06 01:44:23;;;;;;;2.53;2.30;;;5.10;99.90;;;;;;2066101;28;20229;-72
2024/03/06 01:45:23;;;;;;;3.00;1.83;;;5.00;99.90;;;;;;2066869;28;20248;-72
2024/03/06 01:46:24;;;;;;;2.57;2.10;;;5.00;99.90;;;;;;2073604;28;20316;-72
2024/03/06 01:47:25;;;;;;;3.00;2.50;;;5.00;99.90;;;;;;2066897;28;20233;-73
2024/03/06 01:48:28;;;;;;;2.80;2.30;;;5.00;99.90;;;;;;2077797;28;20318;-72
2024/03/06 01:49:29;;;;;;;2.90;2.28;;;5.00;99.90;;;;;;2067749;28;20221;-72
2024/03/06 01:50:29;;;;;;;3.40;2.17;;;5.00;99.90;;;;;;2063000;28;20679;-72
2024/03/06 01:51:32;;;;;;;2.83;1.90;;;5.00;99.90;;;;;;2052744;28;20219;-72
2024/03/06 01:52:32;;;;;;;3.60;2.40;;;4.90;99.90;;;;;;2055364;28;20229;-72
2024/03/06 01:53:34;;;;;;;3.90;2.03;;;4.90;99.90;;;;;;2059366;28;20252;-72
2024/03/06 01:54:35;;;;;;;4.05;2.60;;;4.80;99.90;;;;;;2065675;28;20233;-72
2024/03/06 01:55:36;;;;;;;3.20;2.07;;;4.70;99.90;;;;;;2069940;28;20320;-72
2024/03/06 01:56:45;;;;;;;4.20;2.72;;;4.70;99.90;;;;;;2065678;28;20228;-71
2024/03/06 01:57:46;;;;;;;4.45;2.75;;;4.60;99.90;;;;;;2061169;28;20237;-72
2024/03/06 01:58:47;;;;;;;3.63;2.40;;;4.70;99.90;;;;;;2057605;28;20191;-71
2024/03/06 01:59:48;;;;;;;3.33;2.22;;;4.80;99.90;;;;;;2060651;28;20381;-72
2024/03/06 02:00:50;;;;;;;4.20;1.98;;;4.80;99.90;;;;;;2073518;28;20260;-72
2024/03/06 02:01:53;;;;;;;3.47;2.35;;;4.80;99.90;;;;;;2074300;28;20945;-72
2024/03/06 02:02:54;;;;;;;4.78;2.78;;;4.80;99.90;;;;;;2060756;28;20289;-72
2024/03/06 02:03:55;;;;;;;2.97;2.27;;;4.70;99.90;;;;;;2065957;28;20194;-72
2024/03/06 02:04:58;;;;;;;3.28;2.17;;;4.70;99.90;;;;;;2062937;28;20192;-72
2024/03/06 02:06:02;;;;;;;3.47;2.38;;;4.70;99.90;;;;;;2064672;28;20182;-74
2024/03/06 02:07:03;;;;;;;2.40;2.20;;;4.70;99.90;;;;;;2058877;28;20187;-73
2024/03/06 02:08:06;;;;;;;2.50;2.10;;;4.80;99.90;;;;;;2058294;28;20249;-73
2024/03/06 02:09:07;;;;;;;4.13;2.20;;;4.90;99.90;;;;;;2059651;28;20230;-73
2024/03/06 02:10:09;;;;;;;2.95;2.15;;;4.90;99.90;;;;;;2064519;28;20327;-73
2024/03/06 02:11:11;;;;;;;3.58;2.63;;;5.00;99.90;;;;;;2057676;28;20238;-73
2024/03/06 02:12:13;;;;;;;4.47;2.35;;;5.00;99.90;;;;;;2057636;28;20305;-73
2024/03/06 02:13:14;;;;;;;3.38;2.60;;;5.10;99.90;;;;;;2058632;28;20663;-71
2024/03/06 02:14:14;;;;;;;2.83;2.35;;;5.00;99.90;;;;;;2055213;28;20264;-72
2024/03/06 02:15:15;;;;;;;3.83;2.53;;;4.90;99.90;;;;;;2044642;28;20284;-71
2024/03/06 02:16:16;;;;;;;4.40;2.50;;;4.90;99.90;;;;;;2063372;28;20307;-73
2024/03/06 02:17:17;;;;;;;4.30;2.43;;;4.80;99.90;;;;;;2079456;28;20298;-71
2024/03/06 02:18:17;;;;;;;3.37;2.37;;;4.80;99.90;;;;;;2072228;28;20259;-72
2024/03/06 02:19:18;;;;;;;3.70;2.13;;;4.80;99.90;;;;;;2063392;28;20252;-72
2024/03/06 02:20:24;;;;;;;2.90;2.43;;;4.80;99.90;;;;;;2073187;28;20244;-71
2024/03/06 02:21:25;;;;;;;3.97;2.30;;;4.80;99.90;;;;;;2062176;28;20230;-72
2024/03/06 02:22:26;;;;;;;3.85;2.45;;;4.80;99.90;;;;;;2073016;28;20233;-71
2024/03/06 02:23:26;;;;;;;2.20;1.90;;;4.80;99.90;;;;;;2071960;28;20316;-72
2024/03/06 02:24:27;;;;;;;4.73;2.80;;;4.90;99.90;;;;;;2072649;28;20671;-73
2024/03/06 02:25:28;;;;;;;3.30;2.30;;;4.90;99.90;;;;;;2072706;28;20252;-72
2024/03/06 02:26:29;;;;;;;4.10;2.37;;;4.80;99.90;;;;;;2065459;28;20268;-73
2024/03/06 02:27:29;;;;;;;3.10;2.57;;;4.70;99.90;;;;;;2065398;28;20233;-73
2024/03/06 02:28:30;;;;;;;3.87;2.30;;;4.80;99.90;;;;;;2062063;28;20320;-73
2024/03/06 02:29:32;;;;;;;2.87;2.30;;;4.70;99.90;;;;;;2065698;28;20699;-73
2024/03/06 02:30:36;;;;;;;3.22;2.40;;;4.70;99.90;;;;;;2066661;28;20232;-73
2024/03/06 02:31:39;;;;;;;3.78;2.50;;;4.70;99.90;;;;;;2064958;28;20221;-74
2024/03/06 02:32:39;;;;;;;3.20;2.90;;;4.70;99.90;;;;;;2071874;28;20228;-73
2024/03/06 02:33:40;;;;;;;2.93;2.30;;;4.70;99.90;;;;;;2072793;28;20723;-73
2024/03/06 02:34:41;;;;;;;2.73;2.20;;;4.70;99.90;;;;;;2064653;28;20321;-73
2024/03/06 02:35:44;;;;;;;3.20;2.40;;;4.70;99.90;;;;;;2063343;28;20696;-73
2024/03/06 02:36:45;;;;;;;3.08;2.30;;;4.60;99.90;;;;;;2057265;28;20565;-73
2024/03/06 02:37:45;;;;;;;3.87;2.27;;;4.60;99.90;;;;;;2059181;28;20186;-73
2024/03/06 02:38:46;;;;;;;2.80;1.90;;;4.50;99.90;;;;;;2065678;28;20186;-73
2024/03/06 02:39:47;;;;;;;3.17;2.30;;;4.60;99.90;;;;;;2065444;28;20707;-73
2024/03/06 02:40:47;;;;;;;3.50;2.50;;;4.60;99.90;;;;;;2055105;28;20211;-73
2024/03/06 02:41:48;;;;;;;2.33;2.13;;;4.70;99.90;;;;;;2058127;28;20183;-73
2024/03/06 02:42:49;;;;;;;3.90;2.40;;;4.70;99.90;;;;;;2066225;28;20196;-74
2024/03/06 02:43:50;;;;;;;3.70;2.50;;;4.60;99.90;;;;;;2050781;28;20194;-72
2024/03/06 02:44:50;;;;;;;2.80;2.53;;;4.60;99.90;;;;;;2061778;28;20619;-74
2024/03/06 02:45:51;;;;;;;2.80;2.30;;;4.50;99.90;;;;;;2060949;28;20174;-73
2024/03/06 02:46:52;;;;;;;3.53;2.43;;;4.60;99.90;;;;;;2060933;28;20221;-74
2024/03/06 02:47:52;;;;;;;4.00;2.70;;;4.50;99.90;;;;;;2071964;28;20192;-73
2024/03/06 02:48:53;;;;;;;2.33;2.13;;;4.60;99.90;;;;;;2065576;28;20213;-74
2024/03/06 02:49:54;;;;;;;3.50;2.83;;;4.70;99.90;;;;;;2072610;28;20225;-73
2024/03/06 02:50:56;;;;;;;2.90;2.47;;;4.60;99.90;;;;;;2073354;28;20267;-74
2024/03/06 02:51:57;;;;;;;3.42;2.33;;;4.60;99.90;;;;;;2073770;28;20274;-73
2024/03/06 02:52:58;;;;;;;2.80;2.10;;;4.60;99.90;;;;;;2073652;28;20189;-72
2024/03/06 02:53:58;;;;;;;3.40;2.50;;;4.50;99.90;;;;;;2061998;28;20182;-73
2024/03/06 02:54:59;;;;;;;6.00;2.60;;;4.60;99.90;;;;;;2065550;28;20644;-75
2024/03/06 02:56:00;;;;;;;3.15;2.20;;;4.50;99.90;;;;;;2071052;28;20186;-72
2024/03/06 02:57:01;;;;;;;3.47;2.20;;;4.50;99.90;;;;;;2065772;28;20716;-73
2024/03/06 02:58:03;;;;;;;2.70;2.00;;;4.50;99.90;;;;;;2062520;28;20186;-72
2024/03/06 02:59:04;;;;;;;6.85;2.75;;;4.50;99.90;;;;;;2066456;28;20238;-74
2024/03/06 03:00:09;;;;;;;4.13;3.10;;;4.50;99.90;;;;;;2057546;28;20234;-73
2024/03/06 03:01:10;;;;;;;5.20;2.53;;;4.50;99.90;;;;;;2062558;28;20290;-72
2024/03/06 03:02:10;;;;;;;2.40;2.20;;;4.50;99.90;;;;;;2072162;28;20311;-72
2024/03/06 03:03:11;;;;;;;2.80;2.50;;;4.50;99.90;;;;;;2062198;28;20238;-73
2024/03/06 03:04:13;;;;;;;3.58;2.47;;;4.60;99.90;;;;;;2059425;28;20261;-74
2024/03/06 03:05:13;;;;;;;4.47;2.70;;;4.60;99.90;;;;;;2062647;28;20233;-71
2024/03/06 03:06:14;;;;;;;3.43;2.50;;;4.60;99.90;;;;;;2073648;28;20806;-73
2024/03/06 03:07:15;;;;;;;4.03;2.67;;;4.50;99.90;;;;;;2070290;28;20340;-73
2024/03/06 03:08:16;;;;;;;5.57;2.97;;;4.50;99.90;;;;;;2063134;28;20241;-72
2024/03/06 03:09:16;;;;;;;4.07;2.50;;;4.40;99.90;;;;;;2061872;28;20234;-72
2024/03/06 03:10:17;;;;;;;3.83;3.00;;;4.30;99.90;;;;;;2061767;28;20340;-72
2024/03/06 03:11:18;;;;;;;5.27;3.43;;;4.30;99.90;;;;;;2072272;28;20860;-73
2024/03/06 03:12:19;;;;;;;3.93;2.53;;;4.30;99.90;;;;;;2063595;28;20743;-72
2024/03/06 03:13:20;;;;;;;2.67;2.40;;;4.40;99.90;;;;;;2063994;28;20586;-72
2024/03/06 03:14:22;;;;;;;4.80;3.00;;;4.50;99.90;;;;;;2065080;28;20237;-72
2024/03/06 03:15:23;;;;;;;3.77;2.73;;;4.50;99.90;;;;;;2058308;28;20265;-72
2024/03/06 03:16:23;;;;;;;3.60;2.77;;;4.50;99.90;;;;;;2063593;28;20233;-73
2024/03/06 03:17:24;;;;;;;3.97;3.03;;;4.50;99.90;;;;;;2056651;28;20234;-72
2024/03/06 03:18:25;;;;;;;3.23;2.73;;;4.50;99.90;;;;;;2057686;28;20245;-73
2024/03/06 03:19:25;;;;;;;3.60;3.00;;;4.50;99.90;;;;;;2049337;28;20230;-73
2024/03/06 03:20:26;;;;;;;4.70;2.57;;;4.50;99.90;;;;;;2057294;28;20763;-73
2024/03/06 03:21:27;;;;;;;3.37;2.83;;;4.50;99.90;;;;;;2064048;28;20597;-73
2024/03/06 03:22:27;;;;;;;4.77;2.90;;;4.60;99.90;;;;;;2065676;28;20233;-73
2024/03/06 03:23:28;;;;;;;3.60;2.70;;;4.60;99.90;;;;;;2072518;28;20279;-73
2024/03/06 03:24:29;;;;;;;3.47;2.37;;;4.60;99.90;;;;;;2071062;28;20239;-72
2024/03/06 03:25:30;;;;;;;3.40;2.90;;;4.60;99.90;;;;;;2074436;28;20323;-72
2024/03/06 03:26:30;;;;;;;3.07;2.63;;;4.60;99.90;;;;;;2072755;28;20718;-74
2024/03/06 03:27:31;;;;;;;3.37;2.53;;;4.60;99.90;;;;;;2073293;28;20667;-74
2024/03/06 03:28:32;;;;;;;3.50;2.87;;;4.60;99.90;;;;;;2072546;28;20262;-73
2024/03/06 03:29:33;;;;;;;3.58;2.58;;;4.60;99.90;;;;;;2064302;28;20260;-73
2024/03/06 03:30:33;;;;;;;4.27;2.73;;;4.50;99.90;;;;;;2069780;28;20245;-73
2024/03/06 03:31:36;;;;;;;6.30;2.60;;;4.50;99.90;;;;;;2072388;28;21018;-73
2024/03/06 03:32:37;;;;;;;3.95;3.22;;;4.50;99.90;;;;;;2070353;28;20576;-72
2024/03/06 03:33:41;;;;;;;3.40;2.80;;;4.60;99.90;;;;;;2055033;28;20225;-73
2024/03/06 03:34:42;;;;;;;3.08;2.80;;;4.60;99.90;;;;;;2057784;28;20230;-73
2024/03/06 03:35:42;;;;;;;6.27;3.13;;;4.50;99.90;;;;;;2063420;28;20309;-73
2024/03/06 03:36:43;;;;;;;4.50;3.23;;;4.50;99.90;;;;;;2063988;28;20265;-73
2024/03/06 03:37:44;;;;;;;4.70;3.20;;;4.50;99.90;;;;;;2063833;28;20226;-74
2024/03/06 03:38:45;;;;;;;2.73;2.20;;;4.50;99.90;;;;;;2069018;28;20192;-74
2024/03/06 03:39:45;;;;;;;4.83;3.27;;;4.60;99.90;;;;;;2063263;28;20202;-73
2024/03/06 03:40:46;;;;;;;4.63;2.60;;;4.60;99.90;;;;;;2071973;28;20199;-73
2024/03/06 03:41:48;;;;;;;3.73;3.00;;;4.60;99.90;;;;;;2072966;28;20189;-74
2024/03/06 03:42:49;;;;;;;6.90;3.17;;;4.60;99.90;;;;;;2071242;28;20189;-73
2024/03/06 03:43:50;;;;;;;4.73;2.93;;;4.60;99.90;;;;;;2066588;28;20194;-72
2024/03/06 03:44:50;;;;;;;3.10;2.30;;;4.50;99.90;;;;;;2070703;28;20189;-74
2024/03/06 03:45:51;;;;;;;3.40;3.10;;;4.50;99.90;;;;;;2067286;28;20190;-73
2024/03/06 03:46:52;;;;;;;4.77;3.27;;;4.50;99.90;;;;;;2069872;28;20190;-73
2024/03/06 03:47:52;;;;;;;6.93;2.90;;;4.40;99.90;;;;;;2071189;28;20187;-72
2024/03/06 03:48:53;;;;;;;3.80;3.07;;;4.40;99.90;;;;;;2072859;28;20722;-72
2024/03/06 03:49:54;;;;;;;4.23;2.87;;;4.30;99.90;;;;;;2072943;28;20229;-74
2024/03/06 03:50:54;;;;;;;4.20;3.03;;;4.40;99.90;;;;;;2073037;28;20202;-72
2024/03/06 03:51:55;;;;;;;4.37;3.10;;;4.30;99.90;;;;;;2072396;28;20182;-73
2024/03/06 03:52:57;;;;;;;3.37;2.63;;;4.30;99.90;;;;;;2068345;28;20672;-72
2024/03/06 03:53:58;;;;;;;3.25;2.70;;;4.30;99.90;;;;;;2065906;28;20174;-73
2024/03/06 03:54:59;;;;;;;4.27;2.80;;;4.40;99.90;;;;;;2065569;28;20208;-75
2024/03/06 03:56:00;;;;;;;3.83;3.00;;;4.40;99.90;;;;;;2072806;28;20219;-74
2024/03/06 03:57:01;;;;;;;3.95;3.08;;;4.40;99.90;;;;;;2068654;28;20222;-73
2024/03/06 03:58:02;;;;;;;3.07;2.77;;;4.50;99.90;;;;;;2064840;28;20274;-73
2024/03/06 03:59:02;;;;;;;4.50;3.50;;;4.50;99.90;;;;;;2067808;28;20178;-73
2024/03/06 04:00:10;;;;;;;4.03;3.13;;;4.50;99.90;;;;;;2070915;28;20241;-73
2024/03/06 04:01:11;;;;;;;3.75;3.22;;;4.40;99.90;;;;;;2071626;28;20232;-74
2024/03/06 04:02:12;;;;;;;4.30;3.38;;;4.50;99.90;;;;;;2070093;28;20321;-73
2024/03/06 04:03:13;;;;;;;4.13;3.67;;;4.50;99.90;;;;;;2064079;28;20234;-73
2024/03/06 04:04:13;;;;;;;4.07;3.67;;;4.50;99.90;;;;;;2075096;28;20232;-74
2024/03/06 04:05:14;;;;;;;4.77;3.83;;;4.40;99.90;;;;;;2065715;28;20252;-73
2024/03/06 04:06:15;;;;;;;5.90;3.70;;;4.40;99.90;;;;;;2064056;28;20734;-73
2024/03/06 04:07:18;;;;;;;4.40;3.00;;;4.30;99.90;;;;;;2061117;28;20280;-73
2024/03/06 04:08:19;;;;;;;4.78;3.45;;;4.30;99.90;;;;;;2053205;28;20861;-73
2024/03/06 04:09:20;;;;;;;4.73;3.17;;;4.30;99.90;;;;;;2048729;28;20237;-74
2024/03/06 04:10:20;;;;;;;4.33;3.23;;;4.20;99.90;;;;;;2055853;28;20312;-74
2024/03/06 04:11:22;;;;;;;5.47;3.57;;;4.30;99.90;;;;;;2061309;28;20694;-73
2024/03/06 04:12:22;;;;;;;6.07;3.45;;;4.30;99.90;;;;;;2070717;28;20235;-74
2024/03/06 04:13:23;;;;;;;5.13;3.50;;;4.40;99.90;;;;;;2071299;28;20231;-72
2024/03/06 04:14:26;;;;;;;4.97;4.00;;;4.40;99.90;;;;;;2056803;28;20323;-74
2024/03/06 04:15:27;;;;;;;5.35;3.30;;;4.40;99.90;;;;;;2063341;28;20229;-74
2024/03/06 04:16:27;;;;;;;4.85;3.28;;;4.50;99.90;;;;;;2071211;28;20250;-74
2024/03/06 04:17:28;;;;;;;3.77;3.37;;;4.40;99.90;;;;;;2062525;28;20275;-74
2024/03/06 04:18:33;;;;;;;4.47;3.07;;;4.50;99.90;;;;;;2068788;28;20738;-73
2024/03/06 04:19:34;;;;;;;5.25;3.63;;;4.50;99.90;;;;;;2073999;28;20240;-73
2024/03/06 04:20:34;;;;;;;4.27;2.87;;;4.50;99.90;;;;;;2073177;28;20237;-74
2024/03/06 04:21:42;;;;;;;3.47;2.90;;;4.50;99.90;;;;;;2072984;28;20302;-73
2024/03/06 04:22:43;;;;;;;4.22;3.15;;;4.60;99.90;;;;;;2057707;28;20234;-74
2024/03/06 04:23:43;;;;;;;3.90;2.83;;;4.60;99.90;;;;;;2062901;28;20292;-72
2024/03/06 04:24:44;;;;;;;5.75;3.22;;;4.50;99.90;;;;;;2062533;28;20943;-76
2024/03/06 04:25:45;;;;;;;4.07;3.37;;;4.60;99.90;;;;;;2069847;28;20208;-74
2024/03/06 04:26:46;;;;;;;3.53;3.00;;;4.60;99.90;;;;;;2071306;28;20252;-74
2024/03/06 04:27:46;;;;;;;3.83;3.03;;;4.60;99.90;;;;;;2071715;28;20196;-75
2024/03/06 04:28:47;;;;;;;4.87;3.30;;;4.60;99.90;;;;;;2063746;28;20240;-74
2024/03/06 04:29:48;;;;;;;3.80;3.13;;;4.70;99.90;;;;;;2064050;28;20210;-72
2024/03/06 04:30:48;;;;;;;3.50;2.63;;;4.60;99.90;;;;;;2063660;28;20221;-72
2024/03/06 04:31:49;;;;;;;5.67;3.60;;;4.70;99.90;;;;;;2072966;28;20216;-73
2024/03/06 04:32:50;;;;;;;4.83;3.70;;;4.70;99.90;;;;;;2073253;28;20276;-73
2024/03/06 04:33:50;;;;;;;3.10;2.23;;;4.70;99.90;;;;;;2065163;28;20193;-73
2024/03/06 04:34:51;;;;;;;5.77;3.33;;;4.70;99.90;;;;;;2065214;28;20558;-73
2024/03/06 04:35:52;;;;;;;3.83;2.73;;;4.70;99.90;;;;;;2063236;28;20225;-74
2024/03/06 04:36:52;;;;;;;2.93;2.63;;;4.60;99.90;;;;;;2058605;28;20175;-73
2024/03/06 04:37:54;;;;;;;4.10;3.50;;;4.60;99.90;;;;;;2069477;28;20281;-73
2024/03/06 04:38:55;;;;;;;4.43;3.15;;;4.70;99.90;;;;;;2063653;28;20595;-73
2024/03/06 04:39:56;;;;;;;4.00;2.58;;;4.70;99.90;;;;;;2064240;28;20671;-74
2024/03/06 04:40:57;;;;;;;3.70;2.80;;;4.70;99.90;;;;;;2071933;28;20181;-74
2024/03/06 04:41:57;;;;;;;4.40;3.20;;;4.70;99.90;;;;;;2062896;28;20819;-73
2024/03/06 04:42:58;;;;;;;4.77;3.20;;;4.70;99.90;;;;;;2049461;28;20461;-73
2024/03/06 04:44:00;;;;;;;3.53;2.80;;;4.70;99.90;;;;;;2058245;28;20207;-74
2024/03/06 04:45:03;;;;;;;3.63;3.08;;;4.60;99.90;;;;;;2056888;28;20260;-73
2024/03/06 04:46:04;;;;;;;4.47;2.95;;;4.60;99.90;;;;;;2064909;28;20595;-73
2024/03/06 04:47:04;;;;;;;3.88;3.38;;;4.70;99.90;;;;;;2068781;28;20244;-73
2024/03/06 04:48:06;;;;;;;5.40;3.70;;;4.60;99.90;;;;;;2076197;28;20232;-74
2024/03/06 04:49:08;;;;;;;3.63;3.10;;;4.60;99.90;;;;;;2066208;28;20782;-73
2024/03/06 04:50:10;;;;;;;3.80;2.83;;;4.60;99.90;;;;;;2069828;28;20244;-73
2024/03/06 04:51:11;;;;;;;4.03;3.13;;;4.60;99.90;;;;;;2062638;28;20777;-73
2024/03/06 04:52:12;;;;;;;4.57;3.50;;;4.60;99.90;;;;;;2055150;28;20233;-74
2024/03/06 04:53:12;;;;;;;4.97;3.17;;;4.60;99.90;;;;;;2066932;28;20228;-74
2024/03/06 04:54:13;;;;;;;3.93;3.17;;;4.60;99.90;;;;;;2072049;28;20237;-73
2024/03/06 04:55:14;;;;;;;4.70;3.57;;;4.70;99.90;;;;;;2060454;28;20258;-73
2024/03/06 04:56:18;;;;;;;4.82;3.47;;;4.70;99.90;;;;;;2056324;28;20292;-75
2024/03/06 04:57:19;;;;;;;4.65;3.45;;;4.60;99.90;;;;;;2072518;28;20220;-75
2024/03/06 04:58:20;;;;;;;3.60;2.93;;;4.60;99.90;;;;;;2074153;28;20235;-72
2024/03/06 04:59:20;;;;;;;5.07;3.60;;;4.70;99.90;;;;;;2073229;28;20264;-74
2024/03/06 05:00:21;;;;;;;5.30;3.70;;;4.60;99.90;;;;;;2074221;28;20315;-74
2024/03/06 05:01:22;;;;;;;5.70;3.50;;;4.60;99.90;;;;;;2066581;28;20247;-74
2024/03/06 05:02:23;;;;;;;6.20;4.57;;;4.60;99.90;;;;;;2067371;28;20462;-74
2024/03/06 05:03:23;;;;;;;4.77;3.60;;;4.60;99.90;;;;;;2071509;28;20344;-73
2024/03/06 05:04:24;;;;;;;6.20;4.20;;;4.60;99.90;;;;;;2070546;28;20237;-73
2024/03/06 05:05:25;;;;;;;6.20;3.73;;;4.60;99.90;;;;;;2063197;28;20238;-72
2024/03/06 05:06:25;;;;;;;7.50;4.07;;;4.50;99.90;;;;;;2066996;28;20233;-72
2024/03/06 05:07:27;;;;;;;6.03;3.77;;;4.50;99.90;;;;;;2072239;28;20335;-73
2024/03/06 05:08:29;;;;;;;8.25;4.65;;;4.50;99.90;;;;;;2058319;28;20291;-74
2024/03/06 05:09:30;;;;;;;5.55;4.60;;;4.40;99.90;;;;;;2050491;28;20284;-74
2024/03/06 05:10:31;;;;;;;5.53;3.90;;;4.40;99.90;;;;;;2057370;28;20280;-73
2024/03/06 05:11:32;;;;;;;5.20;3.60;;;4.40;99.90;;;;;;2057853;28;20232;-74
2024/03/06 05:12:34;;;;;;;5.85;4.28;;;4.40;99.90;;;;;;2065349;28;20226;-73
2024/03/06 05:13:34;;;;;;;4.90;3.67;;;4.40;99.90;;;;;;2060371;28;20277;-72
2024/03/06 05:14:35;;;;;;;6.40;3.97;;;4.50;99.90;;;;;;2062288;28;20229;-75
2024/03/06 05:15:36;;;;;;;6.77;3.80;;;4.40;99.90;;;;;;2064936;28;20229;-72
2024/03/06 05:16:37;;;;;;;5.83;4.37;;;4.40;99.90;;;;;;2069555;28;21010;-73
2024/03/06 05:17:38;;;;;;;7.00;4.80;;;4.30;99.90;;;;;;2073192;28;20228;-74
2024/03/06 05:18:39;;;;;;;4.53;3.33;;;4.40;99.90;;;;;;2070668;28;20228;-73
2024/03/06 05:19:39;;;;;;;6.80;4.70;;;4.40;99.90;;;;;;2071171;28;20241;-73
2024/03/06 05:20:40;;;;;;;3.20;2.20;;;4.40;99.90;;;;;;2064576;28;20233;-74
2024/03/06 05:21:41;;;;;;;4.67;3.43;;;4.40;99.90;;;;;;2071927;28;20225;-72
2024/03/06 05:22:41;;;;;;;2.10;1.80;;;4.30;99.90;;;;;;2065208;28;20252;-73